createdAt,value
2018-02-04T00:08:49.846Z,90.20
2018-02-04T00:13:54.054Z,90.10
2018-02-04T00:18:57.922Z,90.10
2018-02-04T00:24:00.996Z,90.30
2018-02-04T00:29:04.842Z,90.20
2018-02-04T00:34:08.359Z,90.20
2018-02-04T00:39:11.822Z,90.20
2018-02-04T00:44:14.890Z,90.10
2018-02-04T00:49:18.366Z,90.00
2018-02-04T00:54:21.463Z,89.90
2018-02-04T00:59:24.930Z,90.10
2018-02-04T01:09:32.479Z,90.20
2018-02-04T01:14:36.330Z,90.40
2018-02-04T01:19:40.211Z,90.40
2018-02-04T01:24:43.671Z,90.50
2018-02-04T01:29:46.751Z,90.40
2018-02-04T01:34:49.836Z,90.30
2018-02-04T01:39:53.675Z,90.70
2018-02-04T01:44:57.607Z,90.70
2018-02-04T01:50:01.432Z,90.60
2018-02-04T01:55:04.698Z,90.60
2018-02-04T02:00:09.951Z,90.50
2018-02-04T02:10:23.274Z,90.50
2018-02-04T02:15:26.975Z,90.30
2018-02-04T02:20:30.988Z,90.80
2018-02-04T02:25:35.475Z,90.50
2018-02-04T02:30:38.651Z,89.20
2018-02-04T02:35:42.191Z,87.30
2018-02-04T02:40:46.901Z,86.20
2018-02-04T02:45:50.044Z,85.40
2018-02-04T02:50:53.278Z,85.20
2018-02-04T02:55:57.174Z,84.50
2018-02-04T03:01:00.923Z,83.20
2018-02-04T03:06:04.034Z,84.70
2018-02-04T03:11:07.886Z,84.50
2018-02-04T03:16:11.371Z,83.60
2018-02-04T03:21:15.250Z,83.00
2018-02-04T03:26:18.339Z,83.50
2018-02-04T03:31:21.406Z,83.00
2018-02-04T03:36:24.490Z,82.40
2018-02-04T03:41:27.575Z,82.20
2018-02-04T03:46:30.654Z,82.10
2018-02-04T03:51:33.728Z,81.80
2018-02-04T03:56:36.820Z,83.00
2018-02-04T04:01:40.699Z,80.50
2018-02-04T04:11:48.662Z,79.40
2018-02-04T04:16:52.619Z,79.20
2018-02-04T04:21:55.964Z,80.20
2018-02-04T04:26:59.090Z,79.70
2018-02-04T04:32:02.211Z,79.40
2018-02-04T04:37:06.102Z,80.40
2018-02-04T04:42:09.527Z,80.60
2018-02-04T04:47:13.128Z,79.90
2018-02-04T04:52:16.236Z,80.70
2018-02-04T04:57:19.467Z,80.20
2018-02-04T05:02:23.743Z,79.70
2018-02-04T05:07:26.946Z,79.30
2018-02-04T05:12:30.805Z,79.50
2018-02-04T05:17:33.961Z,80.00
2018-02-04T05:22:37.728Z,79.40
2018-02-04T05:32:45.363Z,79.30
2018-02-04T05:37:48.502Z,79.00
2018-02-04T05:42:51.668Z,78.40
2018-02-04T05:47:56.264Z,78.10
2018-02-04T05:52:59.348Z,76.90
2018-02-04T06:03:06.887Z,72.90
2018-02-04T06:08:09.985Z,72.20
2018-02-04T06:13:13.872Z,73.10
2018-02-04T06:18:17.066Z,72.30
2018-02-04T06:23:20.937Z,72.90
2018-02-04T06:28:24.896Z,72.60
2018-02-04T06:33:29.329Z,73.20
2018-02-04T06:38:32.950Z,72.60
2018-02-04T06:43:36.185Z,73.50
2018-02-04T06:48:39.760Z,72.10
2018-02-04T06:53:43.084Z,71.40
2018-02-04T06:58:47.877Z,72.10
2018-02-04T07:03:51.409Z,72.60
2018-02-04T07:08:55.615Z,72.30
2018-02-04T07:13:58.692Z,72.30
2018-02-04T07:19:02.213Z,71.90
2018-02-04T07:24:06.091Z,71.90
2018-02-04T07:29:09.944Z,71.90
2018-02-04T07:39:19.155Z,69.60
2018-02-04T07:44:23.003Z,69.70
2018-02-04T07:49:26.099Z,67.50
2018-02-04T07:54:29.188Z,66.90
2018-02-04T07:59:33.052Z,66.80
2018-02-04T08:04:36.160Z,65.80
2018-02-04T08:09:40.059Z,66.50
2018-02-04T08:19:47.963Z,66.30
2018-02-04T08:24:51.439Z,66.70
2018-02-04T08:29:54.519Z,67.50
2018-02-04T08:34:58.052Z,68.70
2018-02-04T08:40:01.972Z,67.70
2018-02-04T08:45:05.056Z,69.00
2018-02-04T08:55:16.115Z,69.80
2018-02-04T09:00:19.715Z,69.10
2018-02-04T09:05:23.185Z,68.00
2018-02-04T09:10:26.275Z,69.20
2018-02-04T09:15:29.384Z,68.50
2018-02-04T09:20:33.442Z,68.20
2018-02-04T09:25:36.547Z,67.30
2018-02-04T09:30:40.759Z,67.50
2018-02-04T09:35:43.834Z,66.70
2018-02-04T09:40:47.679Z,64.70
2018-02-04T09:45:50.809Z,64.20
2018-02-04T09:50:54.251Z,62.00
2018-02-04T09:55:58.096Z,61.50
2018-02-04T10:06:07.155Z,61.70
2018-02-04T10:11:10.229Z,60.90
2018-02-04T10:16:13.332Z,61.20
2018-02-04T10:21:16.808Z,61.70
2018-02-04T10:31:24.335Z,59.70
2018-02-04T10:36:27.434Z,60.50
2018-02-04T10:41:30.523Z,61.00
2018-02-04T10:46:34.374Z,62.90
2018-02-04T10:51:43.064Z,59.60
2018-02-04T10:56:46.148Z,62.30
2018-02-04T11:01:50.351Z,62.90
2018-02-04T11:06:53.436Z,63.20
2018-02-04T11:11:56.568Z,64.10
2018-02-04T11:17:00.418Z,64.40
2018-02-04T11:32:28.665Z,64.30
2018-02-04T11:37:32.144Z,63.90
2018-02-04T11:42:35.248Z,64.30
2018-02-04T11:52:42.797Z,62.60
2018-02-04T12:02:51.448Z,62.20
2018-02-04T12:07:56.028Z,61.10
2018-02-04T12:18:04.298Z,63.40
2018-02-04T12:23:07.379Z,69.00
2018-02-04T12:28:10.866Z,70.50
2018-02-04T12:33:14.697Z,70.60
2018-02-04T12:43:23.816Z,71.10
2018-02-04T12:48:26.895Z,70.90
2018-02-04T12:53:30.783Z,71.50
2018-02-04T13:03:39.843Z,67.70
2018-02-04T13:08:42.927Z,66.90
2018-02-04T13:18:51.975Z,61.30
2018-02-04T13:23:55.051Z,56.50
2018-02-04T13:28:58.159Z,57.00
2018-02-04T13:34:02.015Z,56.50
2018-02-04T13:39:05.149Z,57.10
2018-02-04T13:59:21.951Z,62.70
2018-02-04T14:14:34.291Z,59.40
2018-02-04T14:19:37.407Z,59.10
2018-02-04T14:24:40.488Z,61.00
2018-02-04T14:29:44.749Z,62.00
2018-02-04T14:34:47.819Z,60.00
2018-02-04T14:39:50.930Z,59.50
2018-02-04T14:44:54.778Z,60.60
2018-02-04T14:49:57.858Z,58.80
2018-02-04T15:05:09.831Z,60.00
2018-02-04T15:10:14.052Z,59.30
2018-02-04T15:15:17.887Z,58.90
2018-02-04T15:20:21.363Z,59.10
2018-02-04T15:25:24.435Z,59.30
2018-02-04T15:30:27.560Z,59.80
2018-02-04T15:35:30.636Z,59.80
2018-02-04T15:40:34.471Z,59.80
2018-02-04T15:45:37.543Z,60.30
2018-02-04T15:50:42.154Z,60.90
2018-02-04T15:55:45.235Z,60.60
2018-02-04T16:00:48.340Z,60.10
2018-02-04T16:05:52.552Z,59.70
2018-02-04T16:10:55.636Z,61.00
2018-02-04T16:15:59.152Z,61.70
2018-02-04T16:21:02.639Z,61.80
2018-02-04T16:26:05.751Z,62.00
2018-02-04T16:31:10.335Z,61.60
2018-02-04T16:36:13.469Z,61.30
2018-02-04T16:41:17.315Z,62.00
2018-02-04T16:46:20.820Z,62.10
2018-02-04T16:51:24.292Z,62.10
2018-02-04T16:56:31.911Z,63.60
2018-02-04T17:01:35.403Z,62.70
2018-02-04T17:06:39.252Z,62.00
2018-02-04T17:11:43.463Z,62.00
2018-02-04T17:16:47.344Z,62.10
2018-02-04T17:21:51.189Z,61.50
2018-02-04T17:26:55.138Z,62.40
2018-02-04T17:31:58.260Z,61.90
2018-02-04T17:37:01.742Z,61.50
2018-02-04T17:42:04.860Z,62.30
2018-02-04T17:47:07.991Z,62.40
2018-02-04T17:52:11.479Z,61.80
2018-02-04T18:07:23.868Z,62.70
2018-02-04T18:12:28.483Z,63.30
2018-02-04T18:17:32.000Z,63.90
2018-02-04T18:22:35.083Z,64.40
2018-02-04T18:27:38.163Z,64.30
2018-02-04T18:32:42.790Z,65.10
2018-02-04T18:37:45.890Z,65.30
2018-02-04T18:47:54.933Z,67.10
2018-02-04T18:52:58.023Z,67.60
2018-02-04T18:58:01.916Z,68.20
2018-02-04T19:03:04.999Z,68.10
2018-02-04T19:08:09.220Z,68.30
2018-02-04T19:13:13.087Z,68.10
2018-02-04T19:18:16.224Z,68.10
2018-02-04T19:23:19.311Z,68.50
2018-02-04T19:28:23.706Z,68.20
2018-02-04T19:38:33.799Z,67.60
2018-02-04T19:43:37.684Z,68.20
2018-02-04T19:48:41.532Z,68.20
2018-02-04T19:53:44.665Z,68.40
2018-02-04T19:58:48.401Z,68.20
2018-02-04T20:03:51.891Z,68.70
2018-02-04T20:14:00.180Z,68.80
2018-02-04T20:24:09.230Z,69.00
2018-02-04T20:29:12.337Z,69.50
2018-02-04T20:39:32.561Z,69.40
2018-02-04T20:44:36.424Z,68.70
2018-02-04T20:54:45.502Z,68.80
2018-02-04T20:59:48.602Z,68.00
2018-02-04T21:04:51.748Z,67.80
2018-02-04T21:09:55.595Z,67.40
2018-02-04T21:14:58.716Z,66.70
2018-02-04T21:20:02.927Z,66.00
2018-02-04T21:25:06.007Z,65.40
2018-02-04T21:30:09.099Z,64.80
2018-02-04T21:40:16.659Z,65.70
2018-02-04T21:45:19.749Z,65.00
2018-02-04T21:50:22.855Z,64.60
2018-02-04T21:55:25.957Z,64.20
2018-02-04T22:00:29.832Z,63.80
2018-02-04T22:05:34.437Z,64.30
2018-02-04T22:10:38.280Z,64.90
2018-02-04T22:15:42.571Z,64.80
2018-02-04T22:20:46.451Z,64.70
2018-02-04T22:30:54.000Z,65.40
2018-02-04T22:35:57.483Z,66.00
2018-02-04T22:46:05.107Z,66.30
2018-02-04T22:51:08.952Z,66.80
2018-02-04T22:56:12.091Z,66.50
2018-02-04T23:01:15.571Z,66.30
2018-02-04T23:06:20.212Z,66.80
2018-02-04T23:11:23.302Z,66.80
2018-02-04T23:16:27.353Z,66.80
2018-02-04T23:31:41.385Z,67.70
2018-02-04T23:36:44.508Z,68.60
2018-02-04T23:41:47.582Z,68.60
2018-02-04T23:46:50.779Z,68.60
2018-02-04T23:51:54.624Z,68.40
